createdAt,value
2017-06-10T00:00:57.782Z,24.96
2017-06-10T00:02:06.619Z,25.09
2017-06-10T00:03:15.450Z,25.06
2017-06-10T00:04:24.285Z,25.16
2017-06-10T00:05:33.119Z,25.1
2017-06-10T00:06:41.958Z,25.02
2017-06-10T00:07:50.794Z,24.92
2017-06-10T00:08:59.628Z,24.91
2017-06-10T00:10:08.465Z,24.87
2017-06-10T00:11:17.304Z,24.89
2017-06-10T00:12:26.144Z,24.83
2017-06-10T00:13:41.257Z,24.84
2017-06-10T00:14:50.408Z,24.77
2017-06-10T00:15:59.243Z,24.87
2017-06-10T00:17:08.074Z,24.79
2017-06-10T00:18:16.907Z,24.77
2017-06-10T00:19:25.746Z,24.67
2017-06-10T00:20:34.586Z,24.65
2017-06-10T00:21:43.735Z,24.68
2017-06-10T00:22:52.566Z,24.67
2017-06-10T00:24:01.398Z,24.67
2017-06-10T00:25:10.241Z,24.67
2017-06-10T00:26:19.082Z,24.64
2017-06-10T00:27:27.914Z,24.64
2017-06-10T00:28:36.753Z,24.65
2017-06-10T00:29:45.935Z,24.64
2017-06-10T00:30:54.774Z,24.65
2017-06-10T00:32:03.619Z,24.6
2017-06-10T00:33:12.454Z,24.58
2017-06-10T00:34:21.288Z,24.57
2017-06-10T00:35:30.127Z,24.49
2017-06-10T00:36:38.960Z,24.48
2017-06-10T00:37:47.802Z,24.53
2017-06-10T00:38:56.637Z,24.42
2017-06-10T00:40:05.477Z,24.48
2017-06-10T00:41:14.326Z,24.49
2017-06-10T00:42:23.168Z,24.45
2017-06-10T00:43:32.007Z,24.36
2017-06-10T00:44:40.845Z,24.35
2017-06-10T00:45:49.676Z,24.45
2017-06-10T00:46:58.508Z,24.33
2017-06-10T00:48:07.341Z,24.35
2017-06-10T00:49:16.177Z,24.36
2017-06-10T00:50:25.014Z,24.39
2017-06-10T00:51:33.844Z,24.31
2017-06-10T00:52:42.691Z,24.23
2017-06-10T00:53:51.527Z,24.28
2017-06-10T00:55:00.364Z,24.3
2017-06-10T00:56:09.191Z,24.31
2017-06-10T00:57:18.023Z,24.27
2017-06-10T00:58:26.863Z,24.23
2017-06-10T00:59:35.698Z,24.21
2017-06-10T01:00:44.524Z,24.18
2017-06-10T01:01:53.361Z,24.13
2017-06-10T01:03:02.205Z,24.2
2017-06-10T01:04:11.042Z,24.16
2017-06-10T01:05:19.882Z,24.18
2017-06-10T01:06:28.713Z,24.13
2017-06-10T01:07:37.538Z,24.2
2017-06-10T01:08:46.382Z,24.13
2017-06-10T01:09:55.215Z,24.12
2017-06-10T01:11:04.060Z,24.12
2017-06-10T01:12:12.893Z,24.08
2017-06-10T01:13:21.722Z,24.12
2017-06-10T01:14:30.871Z,24.12
2017-06-10T01:15:39.702Z,24.08
2017-06-10T01:16:48.535Z,24.06
2017-06-10T01:17:57.371Z,24.03
2017-06-10T01:19:06.208Z,24.03
2017-06-10T01:20:15.046Z,24.08
2017-06-10T01:21:23.895Z,24.12
2017-06-10T01:22:32.732Z,24.05
2017-06-10T01:23:41.569Z,24.09
2017-06-10T01:24:50.422Z,24.03
2017-06-10T01:25:59.257Z,24.05
2017-06-10T01:27:08.093Z,24.08
2017-06-10T01:28:16.933Z,24.01
2017-06-10T01:29:25.772Z,23.98
2017-06-10T01:30:34.608Z,23.96
2017-06-10T01:31:43.443Z,23.96
2017-06-10T01:32:52.281Z,23.99
2017-06-10T01:34:01.123Z,23.94
2017-06-10T01:35:09.954Z,23.99
2017-06-10T01:36:18.796Z,24.02
2017-06-10T01:37:27.640Z,23.9
2017-06-10T01:38:36.470Z,23.94
2017-06-10T01:39:45.311Z,23.86
2017-06-10T01:40:54.140Z,23.87
2017-06-10T01:42:02.985Z,23.88
2017-06-10T01:43:11.822Z,23.86
2017-06-10T01:44:20.658Z,23.88
2017-06-10T01:45:29.490Z,23.75
2017-06-10T01:46:38.362Z,23.91
2017-06-10T01:47:47.195Z,23.84
2017-06-10T01:48:56.029Z,23.81
2017-06-10T01:50:04.877Z,23.88
2017-06-10T01:51:13.711Z,23.9
2017-06-10T01:52:22.542Z,23.86
2017-06-10T01:53:31.402Z,23.83
2017-06-10T01:54:40.284Z,23.81
2017-06-10T01:55:49.116Z,23.88
2017-06-10T01:56:57.959Z,23.86
2017-06-10T01:58:06.796Z,23.73
2017-06-10T01:59:15.648Z,23.75
2017-06-10T02:00:24.494Z,23.79
2017-06-10T02:01:33.325Z,23.68
2017-06-10T02:02:42.163Z,23.75
2017-06-10T02:03:51.000Z,23.73
2017-06-10T02:04:59.834Z,23.76
2017-06-10T02:06:08.672Z,23.83
2017-06-10T02:07:17.499Z,23.73
2017-06-10T02:08:26.339Z,23.76
2017-06-10T02:09:35.166Z,23.76
2017-06-10T02:10:43.999Z,23.75
2017-06-10T02:11:52.834Z,23.72
2017-06-10T02:13:01.672Z,23.64
2017-06-10T02:14:10.536Z,23.71
2017-06-10T02:15:19.371Z,23.61
2017-06-10T02:16:28.200Z,23.61
2017-06-10T02:17:37.069Z,23.57
2017-06-10T02:18:46.228Z,23.64
2017-06-10T02:19:55.059Z,23.57
2017-06-10T02:21:03.889Z,23.64
2017-06-10T02:22:12.731Z,23.65
2017-06-10T02:23:21.569Z,23.59
2017-06-10T02:24:30.410Z,23.65
2017-06-10T02:25:39.245Z,23.54
2017-06-10T02:26:48.077Z,23.61
2017-06-10T02:27:56.910Z,23.53
2017-06-10T02:29:05.739Z,23.57
2017-06-10T02:30:14.569Z,23.54
2017-06-10T02:31:23.404Z,23.54
2017-06-10T02:32:32.250Z,23.51
2017-06-10T02:33:41.084Z,23.54
2017-06-10T02:34:49.930Z,23.57
2017-06-10T02:35:58.757Z,23.5
2017-06-10T02:37:07.593Z,23.5
2017-06-10T02:38:16.426Z,23.5
2017-06-10T02:39:25.264Z,23.49
2017-06-10T02:40:34.094Z,23.46
2017-06-10T02:41:42.931Z,23.41
2017-06-10T02:42:51.759Z,23.49
2017-06-10T02:44:00.592Z,23.38
2017-06-10T02:45:09.429Z,23.41
2017-06-10T02:46:18.263Z,23.39
2017-06-10T02:47:27.095Z,23.41
2017-06-10T02:48:35.921Z,23.38
2017-06-10T02:49:44.769Z,23.41
2017-06-10T02:50:53.600Z,23.43
2017-06-10T02:52:02.431Z,23.44
2017-06-10T02:53:11.263Z,23.38
2017-06-10T02:54:20.099Z,23.28
2017-06-10T02:55:28.962Z,23.24
2017-06-10T02:56:37.793Z,23.39
2017-06-10T02:57:46.628Z,23.35
2017-06-10T02:58:55.464Z,23.23
2017-06-10T03:00:04.298Z,23.34
2017-06-10T03:01:13.131Z,23.31
2017-06-10T03:02:21.962Z,23.34
2017-06-10T03:03:30.801Z,23.31
2017-06-10T03:04:39.645Z,23.31
2017-06-10T03:05:48.473Z,23.31
2017-06-10T03:06:57.302Z,23.25
2017-06-10T03:08:06.140Z,23.27
2017-06-10T03:09:14.971Z,23.21
2017-06-10T03:10:24.118Z,23.31
2017-06-10T03:11:32.974Z,23.21
2017-06-10T03:12:41.806Z,23.31
2017-06-10T03:13:50.645Z,23.25
2017-06-10T03:14:59.484Z,23.24
2017-06-10T03:16:08.328Z,23.23
2017-06-10T03:17:17.160Z,23.19
2017-06-10T03:18:25.998Z,23.24
2017-06-10T03:19:34.843Z,23.27
2017-06-10T03:20:43.675Z,23.21
2017-06-10T03:21:52.512Z,23.23
2017-06-10T03:23:01.340Z,23.19
2017-06-10T03:24:10.171Z,23.13
2017-06-10T03:25:18.999Z,23.19
2017-06-10T03:26:27.834Z,23.18
2017-06-10T03:27:36.674Z,23.01
2017-06-10T03:28:45.508Z,23
2017-06-10T03:29:54.339Z,23.08
2017-06-10T03:31:03.166Z,23.09
2017-06-10T03:32:12.001Z,23
2017-06-10T03:33:20.831Z,23.13
2017-06-10T03:34:29.806Z,23.11
2017-06-10T03:35:38.645Z,23.11
2017-06-10T03:36:47.797Z,23.12
2017-06-10T03:37:56.632Z,23.18
2017-06-10T03:39:05.496Z,23.11
2017-06-10T03:40:14.330Z,23.16
2017-06-10T03:41:23.174Z,23.09
2017-06-10T03:42:32.010Z,23.05
2017-06-10T03:43:40.844Z,23.12
2017-06-10T03:44:50.003Z,23.09
2017-06-10T03:45:58.832Z,23.08
2017-06-10T03:47:07.671Z,23
2017-06-10T03:48:16.507Z,22.97
2017-06-10T03:49:25.343Z,23.05
2017-06-10T03:50:34.179Z,23.08
2017-06-10T03:51:43.023Z,22.96
2017-06-10T03:52:52.166Z,23
2017-06-10T03:54:01.002Z,22.97
2017-06-10T03:55:09.844Z,22.98
2017-06-10T03:56:18.671Z,23.01
2017-06-10T03:57:27.499Z,22.96
2017-06-10T03:58:36.334Z,22.9
2017-06-10T03:59:45.501Z,22.87
2017-06-10T04:00:54.336Z,22.98
2017-06-10T04:02:03.161Z,22.97
2017-06-10T04:03:12.376Z,23.06
2017-06-10T04:04:21.212Z,22.94
2017-06-10T04:05:30.048Z,22.94
2017-06-10T04:06:38.882Z,22.87
2017-06-10T04:07:48.043Z,22.93
2017-06-10T04:08:56.874Z,22.9
2017-06-10T04:10:05.703Z,22.94
2017-06-10T04:11:14.542Z,22.91
2017-06-10T04:12:23.374Z,22.93
2017-06-10T04:13:32.207Z,22.98
2017-06-10T04:14:41.040Z,22.87
2017-06-10T04:15:49.875Z,22.91
2017-06-10T04:16:58.707Z,22.86
2017-06-10T04:18:07.537Z,22.87
2017-06-10T04:19:16.376Z,22.93
2017-06-10T04:20:25.210Z,22.9
2017-06-10T04:21:34.043Z,22.79
2017-06-10T04:22:42.878Z,22.9
2017-06-10T04:23:51.712Z,22.9
2017-06-10T04:25:00.545Z,22.87
2017-06-10T04:26:09.373Z,22.9
2017-06-10T04:27:18.204Z,22.81
2017-06-10T04:28:27.037Z,22.83
2017-06-10T04:29:35.875Z,22.82
2017-06-10T04:30:44.710Z,22.82
2017-06-10T04:31:53.564Z,22.83
2017-06-10T04:33:02.398Z,22.81
2017-06-10T04:34:11.241Z,22.87
2017-06-10T04:35:20.067Z,22.71
2017-06-10T04:36:28.938Z,22.86
2017-06-10T04:37:37.782Z,22.76
2017-06-10T04:38:46.620Z,22.86
2017-06-10T04:39:55.483Z,22.79
2017-06-10T04:41:04.315Z,22.82
2017-06-10T04:42:13.148Z,22.79
2017-06-10T04:43:21.981Z,22.83
2017-06-10T04:44:30.817Z,22.72
2017-06-10T04:45:39.645Z,22.79
2017-06-10T04:46:48.478Z,22.9
2017-06-10T04:47:57.313Z,22.79
2017-06-10T04:49:06.141Z,22.86
2017-06-10T04:50:14.976Z,22.86
2017-06-10T04:51:23.801Z,22.81
2017-06-10T04:52:32.630Z,22.87
2017-06-10T04:53:41.467Z,22.76
2017-06-10T04:54:50.304Z,22.76
2017-06-10T04:55:59.135Z,22.71
2017-06-10T04:57:07.975Z,22.83
2017-06-10T04:58:16.809Z,22.91
2017-06-10T04:59:25.641Z,22.73
2017-06-10T05:00:34.478Z,22.73
2017-06-10T05:01:43.313Z,22.78
2017-06-10T05:02:52.144Z,22.76
2017-06-10T05:04:00.976Z,22.88
2017-06-10T05:05:09.803Z,22.71
2017-06-10T05:06:18.664Z,22.71
2017-06-10T05:07:27.498Z,22.78
2017-06-10T05:08:36.338Z,22.71
2017-06-10T05:09:45.497Z,22.78
2017-06-10T05:10:54.325Z,22.72
2017-06-10T05:12:03.159Z,22.76
2017-06-10T05:13:11.997Z,22.76
2017-06-10T05:14:20.843Z,22.71
2017-06-10T05:15:29.679Z,22.78
2017-06-10T05:16:38.509Z,22.66
2017-06-10T05:17:47.340Z,22.75
2017-06-10T05:18:56.177Z,22.68
2017-06-10T05:20:05.019Z,22.79
2017-06-10T05:21:13.849Z,22.75
2017-06-10T05:22:22.682Z,22.78
2017-06-10T05:23:31.511Z,22.68
2017-06-10T05:24:40.344Z,22.69
2017-06-10T05:25:49.176Z,22.75
2017-06-10T05:26:58.017Z,22.75
2017-06-10T05:28:06.846Z,22.73
2017-06-10T05:29:15.676Z,22.73
2017-06-10T05:30:24.505Z,22.69
2017-06-10T05:31:33.340Z,22.81
2017-06-10T05:32:42.495Z,22.81
2017-06-10T05:33:51.323Z,22.86
2017-06-10T05:35:00.157Z,22.83
2017-06-10T05:36:09.313Z,22.86
2017-06-10T05:37:18.144Z,22.91
2017-06-10T05:38:26.979Z,22.88
2017-06-10T05:39:35.820Z,22.71
2017-06-10T05:40:44.658Z,22.83
2017-06-10T05:41:53.495Z,22.69
2017-06-10T05:43:02.327Z,22.76
2017-06-10T05:44:11.158Z,22.78
2017-06-10T05:45:19.994Z,22.75
2017-06-10T05:46:28.841Z,22.79
2017-06-10T05:47:37.674Z,22.73
2017-06-10T05:48:46.823Z,22.69
2017-06-10T05:49:55.654Z,22.75
2017-06-10T05:51:04.804Z,22.81
2017-06-10T05:52:13.641Z,22.87
2017-06-10T05:53:22.472Z,22.81
2017-06-10T05:54:31.310Z,22.88
2017-06-10T05:55:40.151Z,22.82
2017-06-10T05:56:48.987Z,22.82
2017-06-10T05:57:57.836Z,22.83
2017-06-10T05:59:06.662Z,22.82
2017-06-10T06:00:15.494Z,22.82
2017-06-10T06:01:24.387Z,22.83
2017-06-10T06:02:33.734Z,22.93
2017-06-10T06:03:42.567Z,22.87
2017-06-10T06:04:51.723Z,22.88
2017-06-10T06:06:00.558Z,22.88
2017-06-10T06:07:09.388Z,22.93
2017-06-10T06:08:18.541Z,22.87
2017-06-10T06:09:27.372Z,22.87
2017-06-10T06:10:36.204Z,22.91
2017-06-10T06:11:45.033Z,22.78
2017-06-10T06:12:53.860Z,22.9
2017-06-10T06:14:02.696Z,22.87
2017-06-10T06:15:11.538Z,22.88
2017-06-10T06:16:20.369Z,22.88
2017-06-10T06:17:29.207Z,22.87
2017-06-10T06:18:38.041Z,22.9
2017-06-10T06:19:46.878Z,22.86
2017-06-10T06:20:56.038Z,22.91
2017-06-10T06:22:04.878Z,22.93
2017-06-10T06:23:13.706Z,22.93
2017-06-10T06:24:22.531Z,22.87
2017-06-10T06:25:31.370Z,22.87
2017-06-10T06:26:40.207Z,22.87
2017-06-10T06:27:49.056Z,22.91
2017-06-10T06:28:57.888Z,22.96
2017-06-10T06:30:06.720Z,22.97
2017-06-10T06:31:15.577Z,22.94
2017-06-10T06:32:24.410Z,23
2017-06-10T06:33:33.245Z,22.91
2017-06-10T06:34:42.078Z,22.91
2017-06-10T06:35:50.908Z,23.03
2017-06-10T06:36:59.745Z,22.78
2017-06-10T06:38:08.576Z,22.81
2017-06-10T06:39:17.417Z,22.86
2017-06-10T06:40:26.257Z,22.87
2017-06-10T06:41:35.095Z,22.91
2017-06-10T06:42:43.929Z,22.97
2017-06-10T06:43:53.080Z,22.93
2017-06-10T06:45:01.919Z,23.05
2017-06-10T06:46:10.749Z,22.87
2017-06-10T06:47:19.595Z,22.86
2017-06-10T06:48:28.422Z,22.88
2017-06-10T06:49:37.251Z,22.87
2017-06-10T06:50:46.087Z,22.73
2017-06-10T06:51:54.945Z,22.66
2017-06-10T06:53:03.776Z,22.78
2017-06-10T06:54:12.613Z,22.76
2017-06-10T06:55:21.441Z,22.73
2017-06-10T06:56:30.287Z,22.81
2017-06-10T06:57:39.134Z,22.79
2017-06-10T06:58:47.971Z,22.9
2017-06-10T06:59:56.803Z,22.9
2017-06-10T07:01:05.636Z,22.94
2017-06-10T07:02:14.472Z,22.96
2017-06-10T07:03:23.304Z,22.9
2017-06-10T07:04:32.463Z,22.83
2017-06-10T07:05:41.302Z,22.83
2017-06-10T07:06:50.132Z,22.83
2017-06-10T07:07:59.284Z,22.83
2017-06-10T07:09:08.118Z,22.88
2017-06-10T07:10:16.953Z,22.91
2017-06-10T07:11:25.792Z,22.86
2017-06-10T07:12:34.632Z,22.79
2017-06-10T07:13:43.461Z,22.78
2017-06-10T07:14:52.931Z,22.88
2017-06-10T07:16:01.773Z,22.83
2017-06-10T07:17:10.610Z,22.83
2017-06-10T07:18:19.439Z,22.87
2017-06-10T07:19:28.271Z,22.72
2017-06-10T07:20:37.282Z,22.86
2017-06-10T07:21:46.151Z,22.87
2017-06-10T07:22:54.989Z,22.91
2017-06-10T07:24:04.134Z,22.88
2017-06-10T07:25:12.968Z,22.83
2017-06-10T07:26:21.799Z,22.86
2017-06-10T07:27:30.631Z,22.71
2017-06-10T07:28:39.469Z,22.58
2017-06-10T07:29:48.313Z,22.49
2017-06-10T07:30:57.147Z,22.54
2017-06-10T07:32:05.988Z,22.57
2017-06-10T07:33:14.819Z,22.71
2017-06-10T07:34:23.655Z,22.76
2017-06-10T07:35:32.483Z,22.86
2017-06-10T07:36:41.321Z,22.91
2017-06-10T07:37:50.160Z,22.86
2017-06-10T07:38:58.992Z,22.87
2017-06-10T07:40:07.825Z,22.81
2017-06-10T07:41:16.660Z,22.83
2017-06-10T07:42:25.494Z,22.9
2017-06-10T07:43:34.325Z,22.91
2017-06-10T07:44:43.157Z,22.88
2017-06-10T07:45:51.986Z,22.86
2017-06-10T07:47:00.819Z,22.72
2017-06-10T07:48:09.654Z,22.91
2017-06-10T07:49:18.478Z,22.81
2017-06-10T07:50:27.315Z,22.79
2017-06-10T07:51:36.145Z,22.88
2017-06-10T07:52:44.988Z,22.91
2017-06-10T07:53:53.816Z,22.87
2017-06-10T07:55:02.647Z,22.88
2017-06-10T07:56:11.479Z,22.79
2017-06-10T07:57:20.313Z,22.86
2017-06-10T07:58:29.148Z,22.78
2017-06-10T07:59:37.981Z,22.76
2017-06-10T08:00:46.811Z,22.88
2017-06-10T08:01:55.645Z,22.9
2017-06-10T08:03:04.489Z,22.93
2017-06-10T08:04:13.331Z,22.91
2017-06-10T08:05:22.167Z,22.83
2017-06-10T08:06:31.003Z,22.81
2017-06-10T08:07:39.835Z,22.88
2017-06-10T08:08:48.669Z,22.86
2017-06-10T08:09:57.502Z,22.88
2017-06-10T08:11:06.339Z,22.9
2017-06-10T08:12:15.172Z,22.79
2017-06-10T08:13:24.001Z,22.86
2017-06-10T08:14:32.828Z,22.86
2017-06-10T08:15:41.661Z,22.64
2017-06-10T08:16:50.495Z,22.71
2017-06-10T08:17:59.334Z,22.81
2017-06-10T08:19:08.174Z,22.88
2017-06-10T08:20:17.013Z,22.73
2017-06-10T08:21:25.839Z,22.69
2017-06-10T08:22:34.676Z,22.58
2017-06-10T08:23:43.515Z,22.71
2017-06-10T08:24:52.353Z,22.81
2017-06-10T08:26:01.186Z,22.82
2017-06-10T08:27:10.013Z,22.83
2017-06-10T08:28:18.849Z,22.87
2017-06-10T08:29:27.675Z,22.94
2017-06-10T08:30:36.516Z,22.87
2017-06-10T08:31:45.356Z,22.86
2017-06-10T08:32:54.182Z,22.87
2017-06-10T08:34:03.014Z,22.83
2017-06-10T08:35:11.848Z,22.72
2017-06-10T08:36:20.677Z,22.76
2017-06-10T08:37:29.517Z,22.64
2017-06-10T08:38:38.375Z,22.75
2017-06-10T08:39:47.204Z,22.73
2017-06-10T08:40:56.040Z,22.68
2017-06-10T08:42:04.879Z,22.82
2017-06-10T08:43:13.711Z,22.94
2017-06-10T08:44:22.549Z,22.87
2017-06-10T08:45:31.388Z,22.87
2017-06-10T08:46:40.219Z,22.83
2017-06-10T08:47:49.059Z,22.94
2017-06-10T08:48:57.893Z,22.87
2017-06-10T08:50:06.729Z,22.71
2017-06-10T08:51:15.563Z,22.82
2017-06-10T08:52:24.426Z,22.87
2017-06-10T08:53:33.273Z,22.88
2017-06-10T08:54:42.112Z,22.78
2017-06-10T08:55:50.952Z,22.82
2017-06-10T08:56:59.781Z,22.86
2017-06-10T08:58:08.619Z,22.9
2017-06-10T08:59:17.450Z,22.86
2017-06-10T09:00:26.279Z,22.86
2017-06-10T09:01:35.130Z,22.81
2017-06-10T09:02:43.963Z,22.83
2017-06-10T09:03:52.798Z,22.88
2017-06-10T09:05:03.298Z,22.78
2017-06-10T09:06:12.167Z,22.87
2017-06-10T09:07:21.331Z,22.81
2017-06-10T09:08:30.162Z,22.9
2017-06-10T09:09:38.998Z,22.83
2017-06-10T09:10:47.833Z,22.93
2017-06-10T09:11:56.670Z,23.06
2017-06-10T09:13:05.500Z,22.98
2017-06-10T09:14:14.334Z,22.97
2017-06-10T09:15:23.396Z,22.98
2017-06-10T09:16:32.232Z,22.96
2017-06-10T09:17:41.171Z,23
2017-06-10T09:18:50.440Z,23.13
2017-06-10T09:19:59.274Z,22.98
2017-06-10T09:21:08.110Z,22.91
2017-06-10T09:22:16.940Z,23.01
2017-06-10T09:23:25.782Z,23.13
2017-06-10T09:24:34.621Z,23.18
2017-06-10T09:25:43.453Z,23.19
2017-06-10T09:26:52.320Z,23.18
2017-06-10T09:28:01.155Z,23.11
2017-06-10T09:29:09.985Z,23.11
2017-06-10T09:30:22.500Z,23.21
2017-06-10T09:31:31.659Z,23.23
2017-06-10T09:32:40.533Z,23.31
2017-06-10T09:33:49.514Z,23.18
2017-06-10T09:34:58.349Z,23.15
2017-06-10T09:36:07.181Z,23.24
2017-06-10T09:37:16.016Z,23.25
2017-06-10T09:38:24.891Z,23.23
2017-06-10T09:39:34.313Z,23.31
2017-06-10T09:40:43.155Z,23.21
2017-06-10T09:41:51.989Z,23.21
2017-06-10T09:43:00.824Z,23.21
2017-06-10T09:44:10.896Z,23.38
2017-06-10T09:45:20.582Z,23.36
2017-06-10T09:46:29.420Z,23.38
2017-06-10T09:47:38.255Z,23.43
2017-06-10T09:48:47.101Z,23.54
2017-06-10T09:49:56.047Z,23.61
2017-06-10T09:51:06.222Z,23.62
2017-06-10T09:52:15.052Z,23.61
2017-06-10T09:53:23.883Z,23.56
2017-06-10T09:54:32.732Z,23.73
2017-06-10T09:55:41.777Z,23.72
2017-06-10T09:56:50.614Z,23.94
2017-06-10T09:57:59.943Z,23.9
2017-06-10T09:59:08.797Z,23.88
2017-06-10T10:00:17.677Z,23.88
2017-06-10T10:01:26.849Z,23.86
2017-06-10T10:02:35.734Z,23.9
2017-06-10T10:03:44.597Z,24.02
2017-06-10T10:04:53.451Z,23.98
2017-06-10T10:06:02.565Z,23.96
2017-06-10T10:07:14.377Z,23.96
2017-06-10T10:08:29.719Z,23.9
2017-06-10T10:09:41.987Z,24.03
2017-06-10T10:10:51.419Z,23.88
2017-06-10T10:12:01.280Z,23.84
2017-06-10T10:13:10.183Z,23.73
2017-06-10T10:14:19.758Z,23.79
2017-06-10T10:15:28.772Z,23.84
2017-06-10T10:16:37.736Z,23.87
2017-06-10T10:17:46.629Z,23.84
2017-06-10T10:18:55.475Z,23.76
2017-06-10T10:20:04.646Z,23.76
2017-06-10T10:21:13.481Z,23.61
2017-06-10T10:22:22.313Z,23.59
2017-06-10T10:23:33.155Z,23.66
2017-06-10T10:24:42.015Z,23.73
2017-06-10T10:25:50.855Z,23.75
2017-06-10T10:26:59.948Z,23.81
2017-06-10T10:28:09.333Z,23.84
2017-06-10T10:29:21.992Z,23.87
2017-06-10T10:30:31.813Z,23.91
2017-06-10T10:31:40.748Z,23.99
2017-06-10T10:32:49.656Z,23.99
2017-06-10T10:33:58.599Z,23.87
2017-06-10T10:35:07.451Z,23.96
2017-06-10T10:36:16.315Z,23.98
2017-06-10T10:37:25.171Z,23.91
2017-06-10T10:38:34.452Z,24.01
2017-06-10T10:39:43.287Z,23.88
2017-06-10T10:40:52.141Z,24.01
2017-06-10T10:42:00.973Z,24.11
2017-06-10T10:43:09.816Z,24.3
2017-06-10T10:44:18.650Z,24.28
2017-06-10T10:45:27.531Z,24.33
2017-06-10T10:46:36.559Z,24.36
2017-06-10T10:47:45.757Z,24.27
2017-06-10T10:48:55.911Z,24.23
2017-06-10T10:50:04.780Z,24.2
2017-06-10T10:51:14.000Z,24.16
2017-06-10T10:52:22.836Z,24.13
2017-06-10T10:53:31.669Z,24.09
2017-06-10T10:54:40.726Z,24.13
2017-06-10T10:55:49.688Z,24.18
2017-06-10T10:56:58.582Z,24.28
2017-06-10T10:58:07.509Z,24.24
2017-06-10T10:59:16.364Z,24.27
2017-06-10T11:00:25.199Z,24.24
2017-06-10T11:01:34.820Z,24.41
2017-06-10T11:02:44.149Z,24.39
2017-06-10T11:03:53.707Z,24.38
2017-06-10T11:05:02.551Z,24.43
2017-06-10T11:06:11.391Z,24.35
2017-06-10T11:07:20.238Z,24.38
2017-06-10T11:08:29.196Z,24.33
2017-06-10T11:09:38.053Z,24.2
2017-06-10T11:10:46.974Z,24.23
2017-06-10T11:11:55.853Z,24.35
2017-06-10T11:13:04.724Z,24.42
2017-06-10T11:14:13.568Z,24.31
2017-06-10T11:15:22.470Z,24.31
2017-06-10T11:16:31.399Z,24.41
2017-06-10T11:17:40.301Z,24.35
2017-06-10T11:18:49.140Z,24.49
2017-06-10T11:19:58.329Z,24.48
2017-06-10T11:21:07.168Z,24.53
2017-06-10T11:22:16.003Z,24.65
2017-06-10T11:23:24.864Z,24.65
2017-06-10T11:24:33.816Z,24.67
2017-06-10T11:25:43.062Z,24.63
2017-06-10T11:26:52.242Z,24.68
2017-06-10T11:28:01.439Z,24.77
2017-06-10T11:29:10.545Z,24.65
2017-06-10T11:30:19.391Z,24.76
2017-06-10T11:31:28.284Z,24.84
2017-06-10T11:32:37.235Z,24.8
2017-06-10T11:33:46.092Z,24.81
2017-06-10T11:34:54.928Z,24.8
2017-06-10T11:36:03.767Z,24.7
2017-06-10T11:37:12.606Z,24.65
2017-06-10T11:38:21.441Z,24.77
2017-06-10T11:39:30.573Z,24.77
2017-06-10T11:40:39.493Z,24.84
2017-06-10T11:41:48.351Z,24.91
2017-06-10T11:42:57.269Z,25.03
2017-06-10T11:44:06.130Z,25.06
2017-06-10T11:45:14.980Z,25.14
2017-06-10T11:46:23.831Z,25.06
2017-06-10T11:47:33.012Z,25.11
2017-06-10T11:48:41.899Z,25.09
2017-06-10T11:49:50.895Z,25.31
2017-06-10T11:50:59.775Z,25.23
2017-06-10T11:52:08.611Z,25.26
2017-06-10T11:53:17.478Z,25.29
2017-06-10T11:54:26.478Z,25.23
2017-06-10T11:55:36.040Z,25.23
2017-06-10T11:56:44.940Z,25.33
2017-06-10T11:57:53.774Z,25.36
2017-06-10T11:59:03.191Z,25.39
2017-06-10T12:00:12.033Z,25.4
2017-06-10T12:01:20.867Z,25.39
2017-06-10T12:02:30.055Z,25.53
2017-06-10T12:03:38.887Z,25.43
2017-06-10T12:04:47.720Z,25.4
2017-06-10T12:05:56.612Z,25.48
2017-06-10T12:07:05.477Z,25.51
2017-06-10T12:08:14.315Z,25.4
2017-06-10T12:09:23.162Z,25.47
2017-06-10T12:10:32.878Z,25.4
2017-06-10T12:11:41.926Z,25.63
2017-06-10T12:12:51.013Z,25.58
2017-06-10T12:14:01.002Z,25.58
2017-06-10T12:15:09.990Z,25.42
2017-06-10T12:16:18.876Z,25.48
2017-06-10T12:17:28.215Z,25.43
2017-06-10T12:18:37.045Z,25.26
2017-06-10T12:19:45.880Z,25.32
2017-06-10T12:20:54.715Z,25.26
2017-06-10T12:22:03.553Z,25.4
2017-06-10T12:23:12.397Z,25.4
2017-06-10T12:24:22.817Z,25.54
2017-06-10T12:25:32.672Z,25.53
2017-06-10T12:26:41.519Z,25.61
2017-06-10T12:27:50.362Z,25.58
2017-06-10T12:28:59.213Z,25.61
2017-06-10T12:30:08.060Z,25.57
2017-06-10T12:31:16.908Z,25.53
2017-06-10T12:32:25.742Z,25.39
2017-06-10T12:33:34.577Z,25.39
2017-06-10T12:34:43.413Z,25.54
2017-06-10T12:35:52.256Z,25.55
2017-06-10T12:37:01.087Z,25.6
2017-06-10T12:38:09.919Z,25.57
2017-06-10T12:39:18.754Z,25.66
2017-06-10T12:40:27.916Z,25.61
2017-06-10T12:41:36.752Z,25.57
2017-06-10T12:42:45.587Z,25.48
2017-06-10T12:43:54.440Z,25.51
2017-06-10T12:45:03.306Z,25.7
2017-06-10T12:46:12.242Z,25.72
2017-06-10T12:47:21.174Z,25.75
2017-06-10T12:48:31.227Z,25.85
2017-06-10T12:49:40.096Z,25.83
2017-06-10T12:50:48.927Z,25.8
2017-06-10T12:51:58.105Z,25.97
2017-06-10T12:53:07.278Z,25.94
2017-06-10T12:54:16.115Z,25.9
2017-06-10T12:55:24.961Z,25.9
2017-06-10T12:56:36.653Z,25.95
2017-06-10T12:59:59.619Z,25.95
2017-06-10T13:01:08.481Z,26.02
2017-06-10T13:02:17.316Z,25.95
2017-06-10T13:03:26.253Z,26.09
2017-06-10T13:04:35.141Z,26.22
2017-06-10T13:05:44.051Z,26.29
2017-06-10T13:06:53.014Z,26.32
2017-06-10T13:08:01.862Z,26.4
2017-06-10T13:09:12.140Z,26.41
2017-06-10T13:14:37.988Z,26.47
2017-06-10T13:15:46.832Z,26.54
2017-06-10T13:16:55.668Z,26.55
2017-06-10T13:18:04.510Z,26.6
2017-06-10T13:19:13.341Z,26.51
2017-06-10T13:20:22.182Z,26.55
2017-06-10T13:21:31.026Z,26.36
2017-06-10T13:22:39.867Z,26.36
2017-06-10T13:23:48.702Z,26.51
2017-06-10T13:24:57.546Z,26.59
2017-06-10T13:26:06.382Z,26.58
2017-06-10T13:27:15.215Z,26.55
2017-06-10T13:28:24.046Z,26.63
2017-06-10T13:29:32.883Z,26.55
2017-06-10T13:30:42.040Z,26.62
2017-06-10T13:31:50.879Z,26.54
2017-06-10T13:32:59.710Z,26.69
2017-06-10T13:34:08.543Z,26.69
2017-06-10T13:35:17.382Z,26.59
2017-06-10T13:36:26.212Z,26.66
2017-06-10T13:37:35.048Z,26.69
2017-06-10T13:38:43.886Z,26.85
2017-06-10T13:39:52.720Z,26.7
2017-06-10T13:41:01.879Z,26.69
2017-06-10T13:42:10.722Z,26.91
2017-06-10T13:43:19.559Z,26.95
2017-06-10T13:44:28.414Z,26.93
2017-06-10T13:45:37.256Z,26.77
2017-06-10T13:46:46.333Z,26.68
2017-06-10T13:47:55.252Z,26.77
2017-06-10T13:49:04.270Z,26.91
2017-06-10T13:50:13.120Z,26.9
2017-06-10T13:51:23.314Z,26.95
2017-06-10T13:52:32.178Z,26.95
2017-06-10T13:53:41.967Z,26.97
2017-06-10T13:54:50.815Z,27
2017-06-10T13:55:59.653Z,26.97
2017-06-10T13:57:08.490Z,26.88
2017-06-10T13:58:17.324Z,26.93
2017-06-10T13:59:26.195Z,26.93
2017-06-10T14:00:35.112Z,27.03
2017-06-10T14:01:44.334Z,26.96
2017-06-10T14:02:53.240Z,26.99
2017-06-10T14:04:02.076Z,27.03
2017-06-10T14:05:10.918Z,27
2017-06-10T14:06:19.761Z,27.07
2017-06-10T14:07:31.606Z,27.05
2017-06-10T14:08:41.102Z,27.06
2017-06-10T14:09:49.944Z,27.21
2017-06-10T14:10:58.783Z,27.21
2017-06-10T14:12:09.912Z,27.18
2017-06-10T14:13:19.634Z,27.36
2017-06-10T14:14:28.511Z,27.44
2017-06-10T14:15:38.876Z,27.42
2017-06-10T14:16:48.135Z,27.46
2017-06-10T14:17:58.075Z,27.37
2017-06-10T14:19:06.921Z,27.34
2017-06-10T14:20:15.757Z,27.34
2017-06-10T14:21:24.591Z,27.4
2017-06-10T14:22:33.431Z,27.39
2017-06-10T14:23:42.275Z,27.46
2017-06-10T14:24:51.113Z,27.44
2017-06-10T14:25:59.947Z,27.37
2017-06-10T14:27:08.792Z,27.46
2017-06-10T14:28:17.625Z,27.47
2017-06-10T14:29:26.483Z,27.55
2017-06-10T14:30:35.319Z,27.6
2017-06-10T14:31:44.161Z,27.68
2017-06-10T14:32:53.105Z,27.46
2017-06-10T14:34:01.944Z,27.46
2017-06-10T14:35:10.780Z,27.59
2017-06-10T14:36:19.615Z,27.59
2017-06-10T14:37:28.454Z,27.8
2017-06-10T14:38:37.289Z,27.74
2017-06-10T14:39:46.316Z,27.71
2017-06-10T14:40:55.280Z,27.74
2017-06-10T14:42:06.320Z,27.84
2017-06-10T14:43:15.480Z,27.85
2017-06-10T14:44:24.559Z,27.93
2017-06-10T14:45:33.542Z,27.85
2017-06-10T14:46:42.921Z,27.63
2017-06-10T14:47:52.064Z,27.8
2017-06-10T14:49:01.430Z,27.96
2017-06-10T14:50:10.769Z,27.96
2017-06-10T14:51:19.624Z,27.92
2017-06-10T14:52:28.460Z,28
2017-06-10T14:53:37.335Z,28.12
2017-06-10T14:54:46.174Z,27.93
2017-06-10T14:55:55.008Z,27.93
2017-06-10T14:57:03.845Z,28.14
2017-06-10T14:58:12.703Z,28.12